Latest Weather Observations for Archerfield

IDQ60901

Issued at 11:03 am EST Wednesday 27 July 2016 (issued every 10 minutes, with the page automatically refreshed every 10 minutes)

About weather observations | Map of Brisbane area stations | Latest observations for Brisbane area | Other Formats
Station Details ID: 040211 Name: ARCHERFIELD AIRPORT Lat: -27.57 Lon: 153.01 Height: 12.5 m
Data from the previous 72 hours. | See also: Recent months at Archerfield
Date/Time
EST
Temp
°C
App
Temp
°C
Dew
Point
°C
Rel
Hum
%
Delta-T
°C
Wind Press
QNH
hPa
Press
MSL
hPa
Rain since
9am
mm
Dir  Spd
km/h
Gust
km/h
Spd
kts
Gust
kts
27/11:00am 16.7 11.1 3.7 42 6.0 W 22 28 12 15 1018.7 1018.7 0.0
27/10:30am 16.8 11.8 4.8 45 5.7 W 20 28 11 15 1018.9 1018.9 0.0
27/10:00am 16.1 10.3 4.2 45 5.5 W 24 32 13 17 1019.0 1019.0 0.0
27/09:30am 16.1 11.2 3.9 44 5.7 W 19 26 10 14 1019.0 1019.0 0.0
27/09:00am 15.8 10.3 3.9 45 5.5 W 22 28 12 15 1019.2 1019.2 0.0
27/08:30am 15.7 11.2 4.1 46 5.4 W 17 24 9 13 1018.9 1018.9 0.0
27/08:00am 15.4 11.7 4.2 47 5.2 WSW 13 19 7 10 1018.8 1018.8 0.0
27/07:30am 15.3 11.1 3.8 46 5.3 W 15 19 8 10 1018.5 1018.5 0.0
27/07:00am 15.5 11.6 3.6 45 5.4 W 13 19 7 10 1018.6 1018.6 0.0
27/06:30am 14.7 11.8 4.4 50 4.8 SW 9 15 5 8 1018.5 1018.5 0.0
27/06:00am 14.8 11.1 4.2 49 4.9 WSW 13 19 7 10 1018.3 1018.3 0.0
27/05:30am 14.5 11.6 4.5 51 4.6 WSW 9 13 5 7 1017.6 1017.6 0.0
27/05:00am 14.8 11.9 4.8 51 4.7 WSW 9 15 5 8 1017.8 1017.8 0.0
27/04:30am 15.0 11.6 4.1 48 5.0 WSW 11 15 6 8 1017.7 1017.7 0.0
27/04:00am 14.9 11.9 4.3 49 4.9 W 9 13 5 7 1017.3 1017.3 0.0
27/03:30am 15.2 10.3 4.3 48 5.1 W 19 20 10 11 1017.2 1017.2 0.0
27/03:00am 15.8 11.2 3.6 44 5.6 WNW 17 24 9 13 1017.1 1017.1 0.0
27/02:30am 16.0 10.1 3.8 44 5.6 W 24 30 13 16 1017.4 1017.4 0.0
27/02:00am 16.0 11.4 3.8 44 5.6 WNW 17 22 9 12 1017.0 1017.0 0.0
27/01:30am 16.3 11.3 3.4 42 5.9 WNW 19 24 10 13 1017.2 1017.2 0.0
27/01:00am 16.7 10.3 3.1 40 6.2 WNW 26 37 14 20 1017.1 1017.1 0.0
27/12:30am 16.8 11.5 3.1 40 6.3 WNW 20 32 11 17 1017.1 1017.1 0.0
27/12:00am 16.6 12.7 3.3 41 6.1 NW 13 20 7 11 1017.2 1017.2 0.0
 
Date/Time
EST
Temp
°C
App
Temp
°C
Dew
Point
°C
Rel
Hum
%
Delta-T
°C
Wind Press
QNH
hPa
Press
MSL
hPa
Rain since
9am
mm
Dir  Spd
km/h
Gust
km/h
Spd
kts
Gust
kts
26/11:30pm 15.2 12.2 6.2 55 4.3 W 11 15 6 8 1017.3 1017.3 0.0
26/11:00pm 15.7 14.3 5.3 50 4.9 NE 2 7 1 4 1017.2 1017.2 0.0
26/10:30pm 15.9 13.1 5.2 49 5.1 NW 9 13 5 7 1017.6 1017.6 0.0
26/10:00pm 15.5 13.8 6.0 53 4.6 NW 4 9 2 5 1017.4 1017.4 0.0
26/09:30pm 14.6 12.8 7.2 61 3.6 N 6 7 3 4 1017.6 1017.6 0.0
26/09:00pm 14.7 13.7 7.5 62 3.5 N 2 7 1 4 1017.7 1017.7 0.0
26/08:30pm 15.1 13.3 7.2 59 3.9 N 6 7 3 4 1017.6 1017.6 0.0
26/08:00pm 15.0 14.2 6.6 57 4.1 CALM 0 0 0 0 1017.5 1017.5 0.0
26/07:30pm 15.0 13.0 6.3 56 4.2 N 6 7 3 4 1017.3 1017.3 0.0
26/07:00pm 15.3 13.5 7.1 58 4.0 NW 6 9 3 5 1017.0 1017.0 0.0
26/06:30pm 15.5 14.5 5.4 51 4.8 CALM 0 0 0 0 1016.4 1016.4 0.0
26/06:00pm 15.9 14.6 4.0 45 5.5 CALM 0 0 0 0 1016.2 1016.2 0.0
26/05:30pm 16.2 14.4 3.6 43 5.8 NNW 2 7 1 4 1016.0 1016.0 0.0
26/05:00pm 16.6 13.9 3.7 42 6.0 NNW 7 9 4 5 1016.2 1016.2 0.0
26/04:30pm 18.0 14.9 3.5 38 6.8 NNW 9 13 5 7 1016.3 1016.3 0.0
26/04:00pm 18.1 14.2 3.2 37 6.9 NNW 13 17 7 9 1016.3 1016.3 0.0
26/03:30pm 18.6 15.4 2.9 35 7.3 NW 9 15 5 8 1016.4 1016.4 0.0
26/03:00pm 18.3 14.3 2.6 35 7.2 WNW 13 17 7 9 1016.3 1016.3 0.0
26/02:30pm 18.3 13.8 2.2 34 7.3 WNW 15 20 8 11 1016.4 1016.4 0.0
26/02:00pm 18.4 13.5 1.9 33 7.5 NW 17 22 9 12 1016.8 1016.8 0.0
26/01:30pm 18.5 14.1 2.8 35 7.2 WNW 15 20 8 11 1017.2 1017.2 0.0
26/01:00pm 18.1 14.0 2.4 35 7.2 WNW 13 20 7 11 1017.2 1017.2 0.0
26/12:30pm 18.3 14.1 3.8 38 6.8 WNW 15 20 8 11 1018.0 1018.0 0.0
26/12:00pm 18.0 13.7 3.1 37 6.9 W 15 24 8 13 1018.2 1018.2 0.0
26/11:30am 17.8 13.0 2.5 36 7.0 W 17 22 9 12 1019.0 1019.0 0.0
26/11:00am 17.2 12.9 3.1 39 6.5 W 15 20 8 11 1019.4 1019.4 0.0
26/10:30am 16.6 11.9 3.3 41 6.1 W 17 22 9 12 1019.5 1019.5 0.0
26/10:00am 16.7 11.7 3.7 42 6.0 W 19 24 10 13 1019.6 1019.6 0.0
26/09:30am 15.9 10.8 4.0 45 5.5 W 20 26 11 14 1019.6 1019.6 0.0
26/09:00am 15.5 10.6 4.3 47 5.2 W 19 24 10 13 1019.6 1019.6 0.0
26/08:30am 14.6 10.4 4.0 49 4.9 W 15 20 8 11 1019.4 1019.4 0.0
26/08:00am 13.6 10.3 4.5 54 4.2 W 11 19 6 10 1019.1 1019.1 0.0
26/07:30am 13.0 9.7 4.4 56 3.9 W 11 15 6 8 1019.0 1019.0 0.0
26/07:00am 12.4 9.5 4.9 60 3.4 WSW 9 11 5 6 1018.7 1018.7 0.0
26/06:30am 12.0 9.2 5.0 62 3.2 WSW 9 13 5 7 1018.5 1018.5 0.0
26/06:00am 12.3 9.8 4.5 59 3.5 SW 7 11 4 6 1018.2 1018.2 0.0
26/05:30am 12.3 9.0 4.8 60 3.4 WSW 11 15 6 8 1018.4 1018.4 0.0
26/05:00am 12.5 8.5 5.0 60 3.4 W 15 19 8 10 1018.2 1018.2 0.0
26/04:30am 13.0 8.6 4.9 58 3.7 W 17 22 9 12 1017.8 1017.8 0.0
26/04:00am 13.1 8.7 5.0 58 3.7 W 17 20 9 11 1017.8 1017.8 0.0
26/03:30am 12.7 8.8 5.4 61 3.4 WNW 15 17 8 9 1017.5 1017.5 0.0
26/03:00am 12.6 9.2 5.8 63 3.2 WNW 13 15 7 8 1017.5 1017.5 0.0
26/02:30am 12.5 9.1 5.7 63 3.2 W 13 17 7 9 1018.0 1018.0 0.0
26/02:00am 12.0 9.4 6.1 67 2.8 W 9 17 5 9 1018.2 1018.2 0.0
26/01:30am 11.2 9.9 6.1 71 2.4 SW 2 7 1 4 1018.1 1018.1 0.0
26/01:00am 11.5 8.6 6.6 72 2.3 SW 11 15 6 8 1018.4 1018.4 0.0
26/12:30am 12.6 10.6 6.2 65 3.0 W 6 7 3 4 1018.4 1018.4 0.0
26/12:00am 12.7 10.4 5.6 62 3.3 WNW 7 9 4 5 1018.4 1018.4 0.0
 
Date/Time
EST
Temp
°C
App
Temp
°C
Dew
Point
°C
Rel
Hum
%
Delta-T
°C
Wind Press
QNH
hPa
Press
MSL
hPa
Rain since
9am
mm
Dir  Spd
km/h
Gust
km/h
Spd
kts
Gust
kts
25/11:30pm 13.4 11.1 4.8 56 4.0 NW 6 7 3 4 1018.3 1018.3 0.0
25/11:00pm 12.5 10.4 5.7 63 3.2 SSW 6 9 3 5 1017.8 1017.8 0.0
25/10:30pm 12.6 10.1 4.6 58 3.7 WNW 7 9 4 5 1018.1 1018.1 0.0
25/10:00pm 13.6 10.4 5.0 56 4.0 W 11 13 6 7 1018.2 1018.2 0.0
25/09:30pm 13.5 10.5 5.9 60 3.6 W 11 15 6 8 1017.9 1017.9 0.0
25/09:00pm 13.5 11.0 6.6 63 3.3 W 9 13 5 7 1018.0 1018.0 0.0
25/08:30pm 14.0 11.4 6.1 59 3.8 W 9 11 5 6 1017.9 1017.9 0.0
25/08:00pm 14.9 12.6 4.6 50 4.8 WNW 6 9 3 5 1017.6 1017.6 0.0
25/07:30pm 13.0 10.8 3.4 52 4.3 WNW 4 7 2 4 1017.6 1017.6 0.0
25/07:00pm 16.0 13.7 2.8 41 6.0 WSW 4 11 2 6 1017.2 1017.2 0.0
25/06:30pm 16.7 12.8 3.4 41 6.1 WSW 13 20 7 11 1016.8 1016.8 0.0
25/06:00pm 17.2 13.6 3.1 39 6.5 W 11 17 6 9 1016.4 1016.4 0.0
25/05:30pm 18.6 13.5 2.9 35 7.3 W 19 24 10 13 1015.8 1015.8 0.0
25/05:00pm 20.1 15.3 2.5 31 8.2 W 17 22 9 12 1015.6 1015.6 0.0
25/04:30pm 21.1 14.9 1.9 28 8.9 WNW 24 30 13 16 1015.4 1015.4 0.0
25/04:00pm 21.5 15.3 2.2 28 9.0 WNW 24 32 13 17 1015.3 1015.3 0.0
25/03:30pm 22.2 16.7 1.8 26 9.5 WNW 20 30 11 16 1015.1 1015.1 0.0
25/03:00pm 22.4 17.1 3.0 28 9.3 W 20 32 11 17 1014.9 1014.9 0.0
25/02:30pm 22.3 17.0 2.9 28 9.2 WNW 20 28 11 15 1014.9 1014.9 0.0
25/02:00pm 21.6 16.2 2.3 28 9.0 W 20 33 11 18 1015.2 1015.2 0.0
25/01:30pm 21.1 16.7 2.9 30 8.6 W 15 22 8 12 1015.6 1015.6 0.0
25/01:00pm 20.8 17.0 4.0 33 8.1 W 13 20 7 11 1015.9 1015.9 0.0
25/12:30pm 20.0 14.8 2.4 31 8.2 WNW 19 26 10 14 1016.4 1016.4 0.0
25/12:00pm 19.6 15.2 2.5 32 7.9 W 15 22 8 12 1016.9 1016.9 0.0
25/11:30am 19.0 14.6 2.8 34 7.5 WSW 15 20 8 11 1017.4 1017.4 0.0
25/11:00am 18.6 14.7 3.6 37 7.0 W 13 22 7 12 1018.0 1018.0 0.0
25/10:30am 17.8 13.9 3.3 38 6.7 WSW 13 22 7 12 1018.3 1018.3 0.0
25/10:00am 17.4 13.9 3.3 39 6.5 W 11 15 6 8 1018.8 1018.8 0.0
25/09:30am 17.3 14.4 4.9 44 5.9 W 9 15 5 8 1018.8 1018.8 0.0
25/09:00am 16.1 12.8 4.8 47 5.3 WSW 11 17 6 9 1018.7 1018.7 0.0
25/08:30am 15.2 12.0 5.1 51 4.8 WSW 11 17 6 9 1018.6 1018.6 0.0
25/08:00am 14.2 11.9 5.6 56 4.1 S 7 9 4 5 1018.4 1018.4 0.0
25/07:30am 12.4 9.4 6.0 65 3.0 S 11 13 6 7 1018.3 1018.3 0.0
25/07:00am 11.8 8.8 6.1 68 2.7 SSE 11 13 6 7 1017.6 1017.6 0.0
25/06:30am 12.6 11.2 5.5 62 3.3 S 2 7 1 4 1017.3 1017.3 0.0
25/06:00am 12.8 11.8 5.7 62 3.3 CALM 0 0 0 0 1016.6 1016.6 0.0
25/05:30am 13.0 10.8 5.4 60 3.5 WSW 6 7 3 4 1016.3 1016.3 0.0
25/05:00am 13.6 11.4 5.3 57 3.9 SSW 6 9 3 5 1015.9 1015.9 0.0
25/04:30am 13.6 10.8 5.0 56 4.0 SSE 9 13 5 7 1015.6 1015.6 0.0
25/04:00am 13.7 10.9 5.3 57 3.9 SSE 9 11 5 6 1015.2 1015.2 0.0
25/03:30am 13.5 10.4 5.7 59 3.7 SW 11 13 6 7 1015.3 1015.3 0.0
25/03:00am 12.7 10.3 7.0 68 2.7 S 9 11 5 6 1015.2 1015.2 0.0
25/02:30am 13.3 11.2 6.6 64 3.2 S 7 11 4 6 1015.2 1015.2 0.0
25/02:00am 13.1 10.7 7.1 67 2.9 SSE 9 11 5 6 1015.2 1015.2 0.0
25/01:30am 12.9 12.7 9.2 78 1.9 CALM 0 0 0 0 1015.2 1015.2 0.0
25/01:00am 13.1 12.7 8.4 73 2.3 CALM 0 0 0 0 1015.4 1015.4 0.0
25/12:30am 13.4 13.1 8.7 73 2.4 CALM 0 0 0 0 1015.6 1015.6 0.0
25/12:00am 12.9 12.4 9.5 80 1.7 WNW 2 6 1 3 1015.6 1015.6 0.0
 
Date/Time
EST
Temp
°C
App
Temp
°C
Dew
Point
°C
Rel
Hum
%
Delta-T
°C
Wind Press
QNH
hPa
Press
MSL
hPa
Rain since
9am
mm
Dir  Spd
km/h
Gust
km/h
Spd
kts
Gust
kts
24/11:30pm 13.1 12.9 9.0 76 2.1 CALM 0 0 0 0 1015.5 1015.5 0.0
24/11:00pm 12.9 11.5 8.8 76 2.1 NNW 6 7 3 4 1015.5 1015.5 0.0
24/10:30pm 12.0 10.6 8.7 80 1.6 WNW 6 7 3 4 1015.6 1015.6 0.0
24/10:00pm 13.8 13.4 9.6 76 2.2 WNW 2 7 1 4 1015.5 1015.5 0.0
24/09:30pm 14.8 13.3 8.5 66 3.2 N 6 9 3 5 1015.2 1015.2 0.0
24/09:00pm 15.6 13.7 9.1 65 3.3 NE 9 11 5 6 1014.9 1014.9 0.0
24/08:30pm 15.1 12.9 9.5 69 2.9 NNE 11 13 6 7 1014.9 1014.9 0.0
24/08:00pm 15.9 14.6 9.3 65 3.4 ENE 6 7 3 4 1015.0 1015.0 0.0
24/07:30pm 15.0 13.6 9.4 69 2.9 N 7 11 4 6 1014.7 1014.7 0.0
24/07:00pm 13.6 11.9 8.4 71 2.6 N 7 9 4 5 1014.7 1014.7 0.0
24/06:30pm 15.2 13.1 8.4 64 3.4 NNE 9 9 5 5 1014.5 1014.5 0.0
24/06:00pm 15.9 13.4 8.4 61 3.8 NE 11 13 6 7 1013.8 1013.8 0.0
24/05:30pm 16.2 13.7 8.2 59 4.1 NE 11 13 6 7 1013.5 1013.5 0.0
24/05:00pm 18.1 15.2 8.1 52 5.1 NE 13 17 7 9 1013.3 1013.3 0.0
24/04:30pm 20.1 16.3 7.5 44 6.5 NNE 17 20 9 11 1012.9 1012.9 0.0
24/04:00pm 21.1 17.0 6.2 38 7.5 NNE 17 20 9 11 1012.8 1012.8 0.0
24/03:30pm 21.9 18.7 4.9 33 8.4 NNE 11 17 6 9 1012.9 1012.9 0.0
24/03:00pm 22.3 18.8 5.3 33 8.5 NNE 13 19 7 10 1012.8 1012.8 0.0
24/02:30pm 21.9 17.5 4.5 32 8.5 NNE 17 22 9 12 1013.2 1013.2 0.0
24/02:00pm 22.4 18.5 3.5 29 9.1 NNE 13 19 7 10 1013.7 1013.7 0.0
24/01:30pm 22.3 18.7 2.9 28 9.2 N 11 20 6 11 1014.2 1014.2 0.0
24/01:00pm 22.2 17.3 1.8 26 9.5 NNW 17 22 9 12 1014.6 1014.6 0.0
24/12:30pm 21.3 17.6 2.1 28 8.9 NNE 11 17 6 9 1015.0 1015.0 0.0
24/12:00pm 21.7 19.0 2.9 29 8.9 NNE 6 9 3 5 1015.4 1015.4 0.0
24/11:30am 20.3 17.6 0.2 26 8.9 W 4 7 2 4 1016.1 1016.1 0.0

Latest Capital City Observations: Canberra | Sydney | Melbourne | Brisbane | Adelaide | Perth | Hobart | Darwin

Other Formats:

Comma delimited format used in spreadsheet applications
http://www.bom.gov.au/fwo/IDQ60901/IDQ60901.94575.axf

JavaScript Object Notation format (JSON) in row-major order
http://www.bom.gov.au/fwo/IDQ60901/IDQ60901.94575.json